CheckWX is a tool to help pilots better visualize weather data.  It is not intended as a substitute for an official pre-flight weather briefing.

03:57:41 UTC

KMYR METAR
Myrtle Beach International Airport
Myrtle Beach, South Carolina, USA
Current

1 hour ago

KMYR 050256Z AUTO 23004KT 10SM CLR 27/22 A2996 RMK AO2 SLP144 T02670222 53015
Observed
Jul-5 @ 02:56 UTC
Wind
  • 230° at 4 KTS
Visibility
10 SM
Flight Rules
VFR
Cloud Levels
  • Clear skies
Temperature
27°C / 81°F
Dewpoint
22°C / 72°F
Humidity
74%
Altimeter
29.96" Hg
Pressure
1014.52 hPa
Previous

2 hours ago

KMYR 050156Z AUTO 23003KT 10SM CLR 28/23 A2994 RMK AO2 SLP138 T02780228
Observed
Jul-5 @ 01:56 UTC
Wind
  • 230° at 3 KTS
Visibility
10 SM
Flight Rules
VFR
Cloud Levels
  • Clear skies
Temperature
28°C / 82°F
Dewpoint
23°C / 73°F
Humidity
74%
Altimeter
29.94" Hg
Pressure
1013.92 hPa
Previous

3 hours ago

KMYR 050056Z AUTO 20008KT 10SM CLR 28/22 A2991 RMK AO2 SLP128 T02830217
Observed
Jul-5 @ 00:56 UTC
Wind
  • 200° at 8 KTS
Visibility
10 SM
Flight Rules
VFR
Cloud Levels
  • Clear skies
Temperature
28°C / 82°F
Dewpoint
22°C / 72°F
Humidity
70%
Altimeter
29.91" Hg
Pressure
1012.92 hPa